createdAt,value
2022-12-25T00:00:51.165Z,7.57
2022-12-25T00:01:51.033Z,7.57
2022-12-25T00:02:51.192Z,7.54
2022-12-25T00:03:51.424Z,7.53
2022-12-25T00:04:50.799Z,7.54
2022-12-25T00:05:50.971Z,7.53
2022-12-25T00:06:50.793Z,7.49
2022-12-25T00:07:50.983Z,7.52
2022-12-25T00:08:51.063Z,7.54
2022-12-25T00:09:51.122Z,7.54
2022-12-25T00:10:50.863Z,7.59
2022-12-25T00:11:51.012Z,7.60
2022-12-25T00:12:50.802Z,7.66
2022-12-25T00:13:51.046Z,7.66
2022-12-25T00:14:50.965Z,7.66
2022-12-25T00:15:51.005Z,7.69
2022-12-25T00:16:50.886Z,7.70
2022-12-25T00:17:50.902Z,7.70
2022-12-25T00:18:50.914Z,7.73
2022-12-25T00:19:50.643Z,7.70
2022-12-25T00:20:50.823Z,7.70
2022-12-25T00:21:50.661Z,7.68
2022-12-25T00:22:50.816Z,7.66
2022-12-25T00:23:50.783Z,7.68
2022-12-25T00:24:50.846Z,7.64
2022-12-25T00:25:50.641Z,7.66
2022-12-25T00:26:50.838Z,7.69
2022-12-25T00:27:50.804Z,7.70
2022-12-25T00:28:50.751Z,7.66
2022-12-25T00:29:50.764Z,7.68
2022-12-25T00:30:50.792Z,7.64
2022-12-25T00:31:50.822Z,7.69
2022-12-25T00:32:50.751Z,7.72
2022-12-25T00:33:50.701Z,7.69
2022-12-25T00:34:50.581Z,7.73
2022-12-25T00:35:50.721Z,7.70
2022-12-25T00:36:50.473Z,7.66
2022-12-25T00:37:50.750Z,7.69
2022-12-25T00:38:50.544Z,7.69
2022-12-25T00:39:50.779Z,7.66
2022-12-25T00:40:50.623Z,7.60
2022-12-25T00:41:50.722Z,7.60
2022-12-25T00:42:50.512Z,7.62
2022-12-25T00:43:50.632Z,7.69
2022-12-25T00:44:50.538Z,7.66
2022-12-25T00:45:50.756Z,7.62
2022-12-25T00:46:50.695Z,7.56
2022-12-25T00:47:50.579Z,7.49
2022-12-25T00:48:49.764Z,7.46
2022-12-25T00:49:50.602Z,7.42
2022-12-25T00:50:50.562Z,7.47
2022-12-25T00:51:50.421Z,7.42
2022-12-25T00:52:50.561Z,7.38
2022-12-25T00:53:50.442Z,7.38
2022-12-25T00:54:50.512Z,7.38
2022-12-25T00:55:50.491Z,7.38
2022-12-25T00:56:51.235Z,7.36
2022-12-25T00:57:49.683Z,7.39
2022-12-25T00:58:50.553Z,7.42
2022-12-25T00:59:50.462Z,7.41
2022-12-25T01:00:50.436Z,7.38
2022-12-25T01:01:49.886Z,7.35
2022-12-25T01:02:51.076Z,7.32
2022-12-25T01:03:50.222Z,7.23
2022-12-25T01:04:49.630Z,7.13
2022-12-25T01:05:51.394Z,7.14
2022-12-25T01:06:50.356Z,7.20
2022-12-25T01:07:50.510Z,7.21
2022-12-25T01:08:50.200Z,7.25
2022-12-25T01:09:50.340Z,7.31
2022-12-25T01:10:50.232Z,7.32
2022-12-25T01:11:50.398Z,7.31
2022-12-25T01:12:50.292Z,7.32
2022-12-25T01:13:50.351Z,7.32
2022-12-25T01:14:50.223Z,7.32
2022-12-25T01:15:49.547Z,7.32
2022-12-25T01:16:51.068Z,7.35
2022-12-25T01:17:50.324Z,7.38
2022-12-25T01:18:50.285Z,7.41
2022-12-25T01:19:50.283Z,7.39
2022-12-25T01:20:50.214Z,7.44
2022-12-25T01:21:50.019Z,7.41
2022-12-25T01:22:50.305Z,7.39
2022-12-25T01:23:50.012Z,7.41
2022-12-25T01:24:50.240Z,7.46
2022-12-25T01:25:50.071Z,7.44
2022-12-25T01:26:50.261Z,7.36
2022-12-25T01:27:50.019Z,7.32
2022-12-25T01:28:50.120Z,7.21
2022-12-25T01:29:50.154Z,7.17
2022-12-25T01:30:50.219Z,7.20
2022-12-25T01:31:49.412Z,7.23
2022-12-25T01:32:50.101Z,7.29
2022-12-25T01:33:50.060Z,7.29
2022-12-25T01:34:55.600Z,7.31
2022-12-25T01:35:50.079Z,7.31
2022-12-25T01:36:49.263Z,7.34
2022-12-25T01:37:50.103Z,7.41
2022-12-25T01:38:49.875Z,7.44
2022-12-25T01:39:50.081Z,7.46
2022-12-25T01:40:49.849Z,7.49
2022-12-25T01:41:49.297Z,7.49
2022-12-25T01:42:49.830Z,7.44
2022-12-25T01:43:49.220Z,7.42
2022-12-25T01:44:49.820Z,7.47
2022-12-25T01:45:50.061Z,7.47
2022-12-25T01:46:49.966Z,7.47
2022-12-25T01:47:49.952Z,7.49
2022-12-25T01:48:49.864Z,7.50
2022-12-25T01:49:50.032Z,7.52
2022-12-25T01:50:49.953Z,7.52
2022-12-25T01:51:49.120Z,7.54
2022-12-25T01:52:49.994Z,7.52
2022-12-25T01:53:49.841Z,7.44
2022-12-25T01:54:49.071Z,7.38
2022-12-25T01:55:49.761Z,7.39
2022-12-25T01:56:49.839Z,7.41
2022-12-25T01:57:49.913Z,7.44
2022-12-25T01:58:49.931Z,7.38
2022-12-25T01:59:49.900Z,7.41
2022-12-25T02:00:49.814Z,7.44
2022-12-25T02:01:50.036Z,7.41
2022-12-25T02:02:50.055Z,7.39
2022-12-25T02:03:49.736Z,7.39
2022-12-25T02:04:49.897Z,7.44
2022-12-25T02:05:49.744Z,7.47
2022-12-25T02:06:49.655Z,7.49
2022-12-25T02:07:49.850Z,7.47
2022-12-25T02:08:49.732Z,7.44
2022-12-25T02:09:49.751Z,7.39
2022-12-25T02:10:49.654Z,7.42
2022-12-25T02:11:49.717Z,7.41
2022-12-25T02:12:48.874Z,7.39
2022-12-25T02:13:49.776Z,7.46
2022-12-25T02:14:49.537Z,7.47
2022-12-25T02:15:49.732Z,7.50
2022-12-25T02:16:57.753Z,7.47
2022-12-25T02:17:49.618Z,7.41
2022-12-25T02:18:49.814Z,7.44
2022-12-25T02:19:49.692Z,7.50
2022-12-25T02:20:49.671Z,7.54
2022-12-25T02:21:49.741Z,7.59
2022-12-25T02:22:49.555Z,7.69
2022-12-25T02:23:48.790Z,7.76
2022-12-25T02:24:50.796Z,7.78
2022-12-25T02:25:50.511Z,7.80
2022-12-25T02:26:49.558Z,7.83
2022-12-25T02:27:49.431Z,7.84
2022-12-25T02:28:49.525Z,7.80
2022-12-25T02:29:49.431Z,7.73
2022-12-25T02:30:49.538Z,7.70
2022-12-25T02:31:49.587Z,7.72
2022-12-25T02:32:49.607Z,7.72
2022-12-25T02:33:49.413Z,7.70
2022-12-25T02:34:49.514Z,7.68
2022-12-25T02:35:49.632Z,7.68
2022-12-25T02:36:49.558Z,7.68
2022-12-25T02:37:49.380Z,7.64
2022-12-25T02:38:49.222Z,7.56
2022-12-25T02:39:48.621Z,7.56
2022-12-25T02:40:48.587Z,7.56
2022-12-25T02:41:49.962Z,7.56
2022-12-25T02:42:49.248Z,7.53
2022-12-25T02:43:49.420Z,7.53
2022-12-25T02:44:49.203Z,7.57
2022-12-25T02:45:49.393Z,7.60
2022-12-25T02:46:49.282Z,7.62
2022-12-25T02:47:49.412Z,7.62
2022-12-25T02:48:49.263Z,7.62
2022-12-25T02:49:49.362Z,7.62
2022-12-25T02:50:49.262Z,7.62
2022-12-25T02:51:49.302Z,7.62
2022-12-25T02:52:49.204Z,7.62
2022-12-25T02:53:49.141Z,7.64
2022-12-25T02:54:48.451Z,7.57
2022-12-25T02:55:49.105Z,7.53
2022-12-25T02:56:49.602Z,7.50
2022-12-25T02:57:49.081Z,7.46
2022-12-25T02:58:49.338Z,7.47
2022-12-25T02:59:49.276Z,7.52
2022-12-25T03:00:49.192Z,7.57
2022-12-25T03:01:49.151Z,7.56
2022-12-25T03:02:49.192Z,7.56
2022-12-25T03:03:49.326Z,7.57
2022-12-25T03:04:49.695Z,7.54
2022-12-25T03:05:49.271Z,7.56
2022-12-25T03:06:48.342Z,7.59
2022-12-25T03:07:49.201Z,7.60
2022-12-25T03:08:49.007Z,7.64
2022-12-25T03:09:49.232Z,7.62
2022-12-25T03:10:48.921Z,7.62
2022-12-25T03:11:49.063Z,7.62
2022-12-25T03:12:49.020Z,7.64
2022-12-25T03:13:48.282Z,7.64
2022-12-25T03:14:50.296Z,7.62
2022-12-25T03:15:49.640Z,7.64
2022-12-25T03:16:48.315Z,7.62
2022-12-25T03:17:50.034Z,7.59
2022-12-25T03:18:48.922Z,7.54
2022-12-25T03:19:48.973Z,7.56
2022-12-25T03:20:48.961Z,7.52
2022-12-25T03:21:49.034Z,7.50
2022-12-25T03:22:48.916Z,7.50
2022-12-25T03:23:48.742Z,7.52
2022-12-25T03:24:48.928Z,7.50
2022-12-25T03:25:48.109Z,7.44
2022-12-25T03:26:49.103Z,7.44
2022-12-25T03:27:48.745Z,7.46
2022-12-25T03:28:48.922Z,7.49
2022-12-25T03:29:49.774Z,7.47
2022-12-25T03:30:48.172Z,7.49
2022-12-25T03:31:48.823Z,7.50
2022-12-25T03:32:48.892Z,7.41
2022-12-25T03:33:48.712Z,7.39
2022-12-25T03:34:49.079Z,7.41
2022-12-25T03:35:48.032Z,7.42
2022-12-25T03:36:49.480Z,7.47
2022-12-25T03:37:48.663Z,7.50
2022-12-25T03:38:48.018Z,7.52
2022-12-25T03:39:49.755Z,7.50
2022-12-25T03:40:48.814Z,7.50
2022-12-25T03:41:48.023Z,7.52
2022-12-25T03:42:48.703Z,7.54
2022-12-25T03:43:47.915Z,7.56
2022-12-25T03:44:47.962Z,7.56
2022-12-25T03:45:49.818Z,7.56
2022-12-25T03:46:49.133Z,7.53
2022-12-25T03:47:47.923Z,7.50
2022-12-25T03:48:49.505Z,7.46
2022-12-25T03:49:48.544Z,7.47
2022-12-25T03:50:48.625Z,7.47
2022-12-25T03:51:48.629Z,7.46
2022-12-25T03:52:48.663Z,7.49
2022-12-25T03:53:48.602Z,7.52
2022-12-25T03:54:48.604Z,7.52
2022-12-25T03:55:47.803Z,7.53
2022-12-25T03:56:48.622Z,7.53
2022-12-25T03:57:48.491Z,7.54
2022-12-25T03:58:48.554Z,7.52
2022-12-25T03:59:48.572Z,7.53
2022-12-25T04:00:48.594Z,7.47
2022-12-25T04:01:48.543Z,7.39
2022-12-25T04:02:48.775Z,7.35
2022-12-25T04:03:48.569Z,7.32
2022-12-25T04:04:48.565Z,7.39
2022-12-25T04:05:48.427Z,7.44
2022-12-25T04:06:48.482Z,7.46
2022-12-25T04:07:48.426Z,7.46
2022-12-25T04:08:48.634Z,7.52
2022-12-25T04:09:48.537Z,7.52
2022-12-25T04:10:48.264Z,7.53
2022-12-25T04:11:48.422Z,7.49
2022-12-25T04:12:48.307Z,7.47
2022-12-25T04:13:47.633Z,7.49
2022-12-25T04:14:48.915Z,7.46
2022-12-25T04:15:48.387Z,7.47
2022-12-25T04:16:48.333Z,7.47
2022-12-25T04:17:48.414Z,7.49
2022-12-25T04:18:48.266Z,7.47
2022-12-25T04:19:48.414Z,7.41
2022-12-25T04:20:48.407Z,7.42
2022-12-25T04:21:48.526Z,7.44
2022-12-25T04:22:48.434Z,7.47
2022-12-25T04:23:48.545Z,7.49
2022-12-25T04:24:48.313Z,7.46
2022-12-25T04:25:48.207Z,7.44
2022-12-25T04:26:48.402Z,7.44
2022-12-25T04:27:48.314Z,7.46
2022-12-25T04:28:48.380Z,7.39
2022-12-25T04:29:47.445Z,7.34
2022-12-25T04:30:48.408Z,7.34
2022-12-25T04:31:48.322Z,7.32
2022-12-25T04:32:48.264Z,7.32
2022-12-25T04:33:48.104Z,7.36
2022-12-25T04:34:48.385Z,7.36
2022-12-25T04:35:48.217Z,7.39
2022-12-25T04:36:48.268Z,7.42
2022-12-25T04:37:48.248Z,7.44
2022-12-25T04:38:48.255Z,7.46
2022-12-25T04:39:48.183Z,7.44
2022-12-25T04:40:48.086Z,7.44
2022-12-25T04:41:48.215Z,7.36
2022-12-25T04:42:47.992Z,7.32
2022-12-25T04:43:48.283Z,7.29
2022-12-25T04:44:47.980Z,7.34
2022-12-25T04:45:48.176Z,7.36
2022-12-25T04:46:48.027Z,7.39
2022-12-25T04:47:48.074Z,7.41
2022-12-25T04:48:48.145Z,7.36
2022-12-25T04:49:48.021Z,7.35
2022-12-25T04:50:48.186Z,7.35
2022-12-25T04:51:48.059Z,7.31
2022-12-25T04:52:47.968Z,7.32
2022-12-25T04:53:48.094Z,7.36
2022-12-25T04:54:47.936Z,7.34
2022-12-25T04:55:47.173Z,7.38
2022-12-25T04:56:48.095Z,7.35
2022-12-25T04:57:47.741Z,7.32
2022-12-25T04:58:48.699Z,7.31
2022-12-25T04:59:47.807Z,7.32
2022-12-25T05:00:48.023Z,7.26
2022-12-25T05:01:48.019Z,7.26
2022-12-25T05:02:48.299Z,7.25
2022-12-25T05:03:47.940Z,7.26
2022-12-25T05:04:48.135Z,7.28
2022-12-25T05:05:47.956Z,7.29
2022-12-25T05:06:48.175Z,7.29
2022-12-25T05:07:47.046Z,7.28
2022-12-25T05:08:48.485Z,7.29
2022-12-25T05:09:47.699Z,7.28
2022-12-25T05:10:47.151Z,7.28
2022-12-25T05:11:48.613Z,7.28
2022-12-25T05:12:47.796Z,7.20
2022-12-25T05:13:46.998Z,7.18
2022-12-25T05:14:47.645Z,7.13
2022-12-25T05:15:47.853Z,7.10
2022-12-25T05:16:47.714Z,7.03
2022-12-25T05:17:48.784Z,6.96
2022-12-25T05:18:47.765Z,6.91
2022-12-25T05:19:46.917Z,6.88
2022-12-25T05:20:47.606Z,6.88
2022-12-25T05:21:47.774Z,6.85
2022-12-25T05:22:46.944Z,6.81
2022-12-25T05:23:47.685Z,6.80
2022-12-25T05:24:47.674Z,6.80
2022-12-25T05:25:47.661Z,6.81
2022-12-25T05:26:48.356Z,6.83
2022-12-25T05:27:53.759Z,6.83
2022-12-25T05:28:47.679Z,6.85
2022-12-25T05:29:47.536Z,6.85
2022-12-25T05:30:47.616Z,6.85
2022-12-25T05:31:47.557Z,6.84
2022-12-25T05:32:47.708Z,6.85
2022-12-25T05:33:47.629Z,6.85
2022-12-25T05:34:47.587Z,6.84
2022-12-25T05:35:47.520Z,6.83
2022-12-25T05:36:48.307Z,6.84
2022-12-25T05:37:47.607Z,6.84
2022-12-25T05:38:47.577Z,6.85
2022-12-25T05:39:47.516Z,6.85
2022-12-25T05:40:47.557Z,6.84
2022-12-25T05:41:47.497Z,6.85
2022-12-25T05:42:48.783Z,6.88
2022-12-25T05:43:47.593Z,6.88
2022-12-25T05:44:46.687Z,6.89
2022-12-25T05:45:48.096Z,6.85
2022-12-25T05:46:47.533Z,6.85
2022-12-25T05:47:46.716Z,6.85
2022-12-25T05:48:47.386Z,6.81
2022-12-25T05:49:47.445Z,6.74
2022-12-25T05:50:47.494Z,6.73
2022-12-25T05:51:47.405Z,6.73
2022-12-25T05:52:47.275Z,6.75
2022-12-25T05:53:47.620Z,6.77
2022-12-25T05:54:46.576Z,6.74
2022-12-25T05:55:47.465Z,6.74
2022-12-25T05:56:47.365Z,6.77
2022-12-25T05:57:47.336Z,6.78
2022-12-25T05:58:48.383Z,6.77
2022-12-25T05:59:47.149Z,6.80
2022-12-25T06:00:48.385Z,6.80
2022-12-25T06:01:46.703Z,6.81
2022-12-25T06:02:48.487Z,6.81
2022-12-25T06:03:48.085Z,6.80
2022-12-25T06:04:46.479Z,6.81
2022-12-25T06:05:48.153Z,6.75
2022-12-25T06:06:47.466Z,6.67
2022-12-25T06:07:46.479Z,6.73
2022-12-25T06:08:48.207Z,6.74
2022-12-25T06:09:47.635Z,6.74
2022-12-25T06:10:46.429Z,6.75
2022-12-25T06:11:48.184Z,6.77
2022-12-25T06:12:47.464Z,6.70
2022-12-25T06:13:46.403Z,6.67
2022-12-25T06:14:48.068Z,6.66
2022-12-25T06:15:47.126Z,6.66
2022-12-25T06:16:46.442Z,6.65
2022-12-25T06:17:47.965Z,6.70
2022-12-25T06:18:47.248Z,6.71
2022-12-25T06:19:46.408Z,6.71
2022-12-25T06:20:48.280Z,6.74
2022-12-25T06:21:47.726Z,6.74
2022-12-25T06:22:46.294Z,6.78
2022-12-25T06:23:48.643Z,6.78
2022-12-25T06:24:48.019Z,6.75
2022-12-25T06:25:46.335Z,6.73
2022-12-25T06:26:47.017Z,6.74
2022-12-25T06:27:46.242Z,6.74
2022-12-25T06:28:47.686Z,6.73
2022-12-25T06:29:46.773Z,6.71
2022-12-25T06:30:46.264Z,6.73
2022-12-25T06:31:47.810Z,6.73
2022-12-25T06:32:47.697Z,6.67
2022-12-25T06:33:46.891Z,6.60
2022-12-25T06:34:48.064Z,6.57
2022-12-25T06:35:46.825Z,6.60
2022-12-25T06:36:46.994Z,6.63
2022-12-25T06:37:46.163Z,6.62
2022-12-25T06:38:47.090Z,6.65
2022-12-25T06:39:46.816Z,6.66
2022-12-25T06:40:46.088Z,6.67
2022-12-25T06:41:46.904Z,6.67
2022-12-25T06:42:46.073Z,6.66
2022-12-25T06:43:46.906Z,6.66
2022-12-25T06:44:46.739Z,6.70
2022-12-25T06:45:46.974Z,6.70
2022-12-25T06:46:46.703Z,6.67
2022-12-25T06:47:46.961Z,6.66
2022-12-25T06:48:46.683Z,6.65
2022-12-25T06:49:46.123Z,6.66
2022-12-25T06:50:46.667Z,6.65
2022-12-25T06:51:46.854Z,6.66
2022-12-25T06:52:46.634Z,6.66
2022-12-25T06:53:46.827Z,6.62
2022-12-25T06:54:46.753Z,6.65
2022-12-25T06:55:46.752Z,6.66
2022-12-25T06:56:46.622Z,6.65
2022-12-25T06:57:46.823Z,6.70
2022-12-25T06:58:45.914Z,6.70
2022-12-25T06:59:51.356Z,6.70
2022-12-25T07:00:48.815Z,6.71
2022-12-25T07:01:46.117Z,6.74
2022-12-25T07:02:46.924Z,6.77
2022-12-25T07:03:45.874Z,6.75
2022-12-25T07:04:46.485Z,6.77
2022-12-25T07:05:46.553Z,6.77
2022-12-25T07:06:46.595Z,6.78
2022-12-25T07:07:45.836Z,6.80
2022-12-25T07:08:45.843Z,6.81
2022-12-25T07:09:46.983Z,6.83
2022-12-25T07:10:46.802Z,6.88
2022-12-25T07:11:45.971Z,6.91
2022-12-25T07:12:46.672Z,6.89
2022-12-25T07:13:45.821Z,6.92
2022-12-25T07:14:46.333Z,6.88
2022-12-25T07:15:46.532Z,6.92
2022-12-25T07:16:45.758Z,6.96
2022-12-25T07:17:46.522Z,6.99
2022-12-25T07:18:46.373Z,7.02
2022-12-25T07:19:46.626Z,7.03
2022-12-25T07:20:46.353Z,7.05
2022-12-25T07:21:46.501Z,7.07
2022-12-25T07:22:46.384Z,7.00
2022-12-25T07:23:46.562Z,7.02
2022-12-25T07:24:46.446Z,6.99
2022-12-25T07:25:45.631Z,6.93
2022-12-25T07:26:46.351Z,6.98
2022-12-25T07:27:46.463Z,7.00
2022-12-25T07:28:46.411Z,7.03
2022-12-25T07:29:45.607Z,7.07
2022-12-25T07:30:46.363Z,7.10
2022-12-25T07:31:45.615Z,7.13
2022-12-25T07:32:49.990Z,7.05
2022-12-25T07:33:46.421Z,7.02
2022-12-25T07:34:47.373Z,7.07
2022-12-25T07:35:46.557Z,7.02
2022-12-25T07:36:45.541Z,6.98
2022-12-25T07:37:46.143Z,6.96
2022-12-25T07:38:46.363Z,6.91
2022-12-25T07:39:46.172Z,6.89
2022-12-25T07:40:46.435Z,6.91
2022-12-25T07:41:45.474Z,6.88
2022-12-25T07:42:46.366Z,6.85
2022-12-25T07:43:45.607Z,6.88
2022-12-25T07:44:45.491Z,6.98
2022-12-25T07:45:46.241Z,7.00
2022-12-25T07:46:46.934Z,6.98
2022-12-25T07:47:46.263Z,6.93
2022-12-25T07:48:46.212Z,7.00
2022-12-25T07:49:47.033Z,7.08
2022-12-25T07:50:47.144Z,7.16
2022-12-25T07:51:46.401Z,7.23
2022-12-25T07:52:45.378Z,7.20
2022-12-25T07:53:45.917Z,7.26
2022-12-25T07:54:45.412Z,7.29
2022-12-25T07:55:45.312Z,7.26
2022-12-25T07:56:45.324Z,7.20
2022-12-25T07:57:46.403Z,7.17
2022-12-25T07:58:46.119Z,7.20
2022-12-25T07:59:46.638Z,7.21
2022-12-25T08:00:46.841Z,7.23
2022-12-25T08:01:45.472Z,7.16
2022-12-25T08:02:45.511Z,7.00
2022-12-25T08:03:46.846Z,7.00
2022-12-25T08:04:46.200Z,7.03
2022-12-25T08:05:45.192Z,7.03
2022-12-25T08:06:46.411Z,6.99
2022-12-25T08:07:45.715Z,7.05
2022-12-25T08:08:45.232Z,7.07
2022-12-25T08:09:45.963Z,7.07
2022-12-25T08:10:45.185Z,7.13
2022-12-25T08:11:46.523Z,7.14
2022-12-25T08:12:47.185Z,7.17
2022-12-25T08:13:45.141Z,7.13
2022-12-25T08:14:46.041Z,7.16
2022-12-25T08:15:45.109Z,7.31
2022-12-25T08:16:45.725Z,7.29
2022-12-25T08:17:45.225Z,7.36
2022-12-25T08:18:45.166Z,7.39
2022-12-25T08:19:45.202Z,7.39
2022-12-25T08:20:45.345Z,7.44
2022-12-25T08:21:45.171Z,7.50
2022-12-25T08:22:45.087Z,7.62
2022-12-25T08:23:45.051Z,7.69
2022-12-25T08:24:45.055Z,7.78
2022-12-25T08:25:45.128Z,7.96
2022-12-25T08:26:45.122Z,8.45
2022-12-25T08:27:45.092Z,9.24
2022-12-25T08:28:45.071Z,10.01
2022-12-25T08:29:45.112Z,10.57
2022-12-25T08:30:45.119Z,10.77
2022-12-25T08:31:46.691Z,10.52
2022-12-25T08:32:45.044Z,10.30
2022-12-25T08:33:45.923Z,10.18
2022-12-25T08:34:45.735Z,10.01
2022-12-25T08:35:45.596Z,9.82
2022-12-25T08:36:44.964Z,9.75
2022-12-25T08:37:47.032Z,9.59
2022-12-25T08:38:45.982Z,9.40
2022-12-25T08:39:45.903Z,9.28
2022-12-25T08:40:45.666Z,9.22
2022-12-25T08:41:44.913Z,9.24
2022-12-25T08:42:46.694Z,9.21
2022-12-25T08:43:46.784Z,9.05
2022-12-25T08:44:44.903Z,9.03
2022-12-25T08:45:44.827Z,9.15
2022-12-25T08:46:44.950Z,9.28
2022-12-25T08:47:44.833Z,9.36
2022-12-25T08:48:44.788Z,9.42
2022-12-25T08:49:46.354Z,9.42
2022-12-25T08:50:44.776Z,9.37
2022-12-25T08:51:46.442Z,9.21
2022-12-25T08:52:46.333Z,9.22
2022-12-25T08:53:46.204Z,9.19
2022-12-25T08:54:46.302Z,9.28
2022-12-25T08:55:46.252Z,9.37
2022-12-25T08:56:45.455Z,9.37
2022-12-25T08:57:45.699Z,9.43
2022-12-25T08:58:45.439Z,9.36
2022-12-25T08:59:46.254Z,9.36
2022-12-25T09:00:44.993Z,9.36
2022-12-25T09:01:46.251Z,9.36
2022-12-25T09:02:44.761Z,9.33
2022-12-25T09:03:45.810Z,9.32
2022-12-25T09:04:45.487Z,9.36
2022-12-25T09:05:44.583Z,9.36
2022-12-25T09:06:46.074Z,9.37
2022-12-25T09:07:45.922Z,9.39
2022-12-25T09:08:49.013Z,9.33
2022-12-25T09:09:46.284Z,9.32
2022-12-25T09:10:44.568Z,9.28
2022-12-25T09:11:45.967Z,9.24
2022-12-25T09:12:45.364Z,9.22
2022-12-25T09:13:44.500Z,9.18
2022-12-25T09:14:46.528Z,9.16
2022-12-25T09:15:45.387Z,9.19
2022-12-25T09:16:44.778Z,9.18
2022-12-25T09:17:46.402Z,9.21
2022-12-25T09:18:45.069Z,9.28
2022-12-25T09:19:45.282Z,9.44
2022-12-25T09:20:45.142Z,9.55
2022-12-25T09:21:45.236Z,9.67
2022-12-25T09:22:44.436Z,9.80
2022-12-25T09:23:45.434Z,9.93
2022-12-25T09:24:44.416Z,10.01
2022-12-25T09:25:46.633Z,10.06
2022-12-25T09:26:45.104Z,10.09
2022-12-25T09:27:45.589Z,10.18
2022-12-25T09:28:50.671Z,10.31
2022-12-25T09:29:44.354Z,10.40
2022-12-25T09:30:44.402Z,10.46
2022-12-25T09:31:44.333Z,10.45
2022-12-25T09:32:44.614Z,10.40
2022-12-25T09:33:46.052Z,10.45
2022-12-25T09:34:45.213Z,10.43
2022-12-25T09:35:44.943Z,10.46
2022-12-25T09:36:44.292Z,10.45
2022-12-25T09:37:45.950Z,10.41
2022-12-25T09:38:45.727Z,10.45
2022-12-25T09:39:46.645Z,10.49
2022-12-25T09:40:45.106Z,10.54
2022-12-25T09:41:44.973Z,10.60
2022-12-25T09:42:44.183Z,10.56
2022-12-25T09:43:45.026Z,10.64
2022-12-25T09:44:45.156Z,10.53
2022-12-25T09:45:45.051Z,10.43
2022-12-25T09:46:44.297Z,10.46
2022-12-25T09:47:46.053Z,10.48
2022-12-25T09:48:44.783Z,10.41
2022-12-25T09:49:44.159Z,10.56
2022-12-25T09:50:45.583Z,10.62
2022-12-25T09:51:45.452Z,10.72
2022-12-25T09:52:44.825Z,10.89
2022-12-25T09:53:45.058Z,11.04
2022-12-25T09:54:44.717Z,11.10
2022-12-25T09:55:44.888Z,11.11
2022-12-25T09:56:45.690Z,11.25
2022-12-25T09:57:44.963Z,11.26
2022-12-25T09:58:44.916Z,11.19
2022-12-25T09:59:45.655Z,11.14
2022-12-25T10:00:44.802Z,11.28
2022-12-25T10:01:44.956Z,11.20
2022-12-25T10:02:44.130Z,11.19
2022-12-25T10:03:45.547Z,11.26
2022-12-25T10:04:44.783Z,11.23
2022-12-25T10:05:44.573Z,11.28
2022-12-25T10:06:45.339Z,11.38
2022-12-25T10:07:44.880Z,11.56
2022-12-25T10:08:43.904Z,11.84
2022-12-25T10:09:43.984Z,12.33
2022-12-25T10:10:44.722Z,13.16
2022-12-25T10:11:44.587Z,14.25
2022-12-25T10:12:44.654Z,14.62
2022-12-25T10:13:43.897Z,14.88
2022-12-25T10:14:45.732Z,14.73
2022-12-25T10:15:45.796Z,14.53
2022-12-25T10:16:44.645Z,14.45
2022-12-25T10:17:43.843Z,14.25
2022-12-25T10:18:45.635Z,14.32
2022-12-25T10:19:44.755Z,14.56
2022-12-25T10:20:44.023Z,14.95
2022-12-25T10:21:43.862Z,15.77
2022-12-25T10:22:45.632Z,16.12
2022-12-25T10:23:44.584Z,16.50
2022-12-25T10:24:43.745Z,16.76
2022-12-25T10:25:45.203Z,16.50
2022-12-25T10:26:45.819Z,16.21
2022-12-25T10:27:45.369Z,16.54
2022-12-25T10:28:45.000Z,16.84
2022-12-25T10:29:44.574Z,16.47
2022-12-25T10:30:44.542Z,16.46
2022-12-25T10:31:45.492Z,16.29
2022-12-25T10:32:43.720Z,15.97
2022-12-25T10:33:43.708Z,16.29
2022-12-25T10:34:44.248Z,15.82
2022-12-25T10:35:43.664Z,15.87
2022-12-25T10:36:45.404Z,15.94
2022-12-25T10:37:45.720Z,16.38
2022-12-25T10:38:44.604Z,16.96
2022-12-25T10:39:46.882Z,17.57
2022-12-25T10:40:45.012Z,17.83
2022-12-25T10:41:43.613Z,17.67
2022-12-25T10:42:45.031Z,18.01
2022-12-25T10:43:45.338Z,18.16
2022-12-25T10:44:43.589Z,18.22
2022-12-25T10:45:43.557Z,17.73
2022-12-25T10:46:43.581Z,17.86
2022-12-25T10:47:43.528Z,18.28
2022-12-25T10:48:43.514Z,18.41
2022-12-25T10:49:44.663Z,18.03
2022-12-25T10:50:44.782Z,17.94
2022-12-25T10:51:44.604Z,18.18
2022-12-25T10:52:43.464Z,18.74
2022-12-25T10:53:43.475Z,18.73
2022-12-25T10:54:44.310Z,18.59
2022-12-25T10:55:43.452Z,18.40
2022-12-25T10:56:44.102Z,18.80
2022-12-25T10:57:44.283Z,18.18
2022-12-25T10:58:43.392Z,16.80
2022-12-25T10:59:45.158Z,15.79
2022-12-25T11:00:44.334Z,14.89
2022-12-25T11:01:44.548Z,14.25
2022-12-25T11:02:44.095Z,14.14
2022-12-25T11:03:43.385Z,13.74
2022-12-25T11:04:44.010Z,13.50
2022-12-25T11:05:44.074Z,13.29
2022-12-25T11:06:43.303Z,13.16
2022-12-25T11:07:43.947Z,12.83
2022-12-25T11:08:43.281Z,12.73
2022-12-25T11:09:45.524Z,12.53
2022-12-25T11:10:44.992Z,12.35
2022-12-25T11:11:43.306Z,12.36
2022-12-25T11:12:43.233Z,12.17
2022-12-25T11:13:44.612Z,12.20
2022-12-25T11:14:43.592Z,12.22
2022-12-25T11:15:44.074Z,12.21
2022-12-25T11:16:43.245Z,12.22
2022-12-25T11:17:44.667Z,12.17
2022-12-25T11:18:43.715Z,12.28
2022-12-25T11:19:44.012Z,12.30
2022-12-25T11:20:47.116Z,12.24
2022-12-25T11:21:43.163Z,12.24
2022-12-25T11:22:43.155Z,12.06
2022-12-25T11:23:44.596Z,12.06
2022-12-25T11:24:43.625Z,11.90
2022-12-25T11:25:43.122Z,11.97
2022-12-25T11:26:44.505Z,11.88
2022-12-25T11:27:44.322Z,11.91
2022-12-25T11:28:43.085Z,11.86
2022-12-25T11:29:45.250Z,11.96
2022-12-25T11:30:44.543Z,11.97
2022-12-25T11:31:43.187Z,12.00
2022-12-25T11:32:44.823Z,11.95
2022-12-25T11:33:44.104Z,11.97
2022-12-25T11:34:43.334Z,11.95
2022-12-25T11:35:44.752Z,11.88
2022-12-25T11:36:44.366Z,11.88
2022-12-25T11:37:43.133Z,11.84
2022-12-25T11:38:44.717Z,11.90
2022-12-25T11:39:43.821Z,11.95
2022-12-25T11:40:43.748Z,11.87
2022-12-25T11:41:42.972Z,11.90
2022-12-25T11:42:44.155Z,11.83
2022-12-25T11:43:43.083Z,11.83
2022-12-25T11:44:59.095Z,11.87
2022-12-25T11:45:44.712Z,11.97
2022-12-25T11:46:44.941Z,12.02
2022-12-25T11:47:44.377Z,11.99
2022-12-25T11:48:43.553Z,11.97
2022-12-25T11:49:49.435Z,11.90
2022-12-25T11:50:43.562Z,11.96
2022-12-25T11:51:43.711Z,12.00
2022-12-25T11:52:43.450Z,12.03
2022-12-25T11:53:43.947Z,12.00
2022-12-25T11:54:43.580Z,12.06
2022-12-25T11:55:43.594Z,11.97
2022-12-25T11:56:44.476Z,11.96
2022-12-25T11:57:44.625Z,11.91
2022-12-25T11:58:44.415Z,11.86
2022-12-25T11:59:44.073Z,11.90
2022-12-25T12:00:43.451Z,11.84
2022-12-25T12:01:44.065Z,11.86
2022-12-25T12:02:44.289Z,11.91
2022-12-25T12:03:43.026Z,11.88
2022-12-25T12:04:44.250Z,11.95
2022-12-25T12:05:42.685Z,11.91
2022-12-25T12:06:43.570Z,11.84
2022-12-25T12:07:43.280Z,11.90
2022-12-25T12:08:44.543Z,11.80
2022-12-25T12:09:43.416Z,11.66
2022-12-25T12:10:44.220Z,11.66
2022-12-25T12:11:43.312Z,11.63
2022-12-25T12:12:48.913Z,11.63
2022-12-25T12:13:44.480Z,11.65
2022-12-25T12:14:44.011Z,11.63
2022-12-25T12:15:43.461Z,11.63
2022-12-25T12:16:44.510Z,11.56
2022-12-25T12:17:43.409Z,11.59
2022-12-25T12:18:49.999Z,11.58
2022-12-25T12:19:43.100Z,11.59
2022-12-25T12:20:44.100Z,11.61
2022-12-25T12:21:42.549Z,11.59
2022-12-25T12:22:43.251Z,11.63
2022-12-25T12:23:44.361Z,11.65
2022-12-25T12:24:44.219Z,11.74
2022-12-25T12:25:43.547Z,11.81
2022-12-25T12:26:44.280Z,11.83
2022-12-25T12:27:43.457Z,11.88
2022-12-25T12:28:43.441Z,11.88
2022-12-25T12:29:42.520Z,11.90
2022-12-25T12:30:42.912Z,11.90
2022-12-25T12:31:44.527Z,11.91
2022-12-25T12:32:43.446Z,11.88
2022-12-25T12:33:42.425Z,11.90
2022-12-25T12:34:44.430Z,11.90
2022-12-25T12:35:43.162Z,11.90
2022-12-25T12:36:44.319Z,11.95
2022-12-25T12:37:42.690Z,11.88
2022-12-25T12:38:44.503Z,11.86
2022-12-25T12:39:43.891Z,11.90
2022-12-25T12:40:43.393Z,11.91
2022-12-25T12:41:44.074Z,11.96
2022-12-25T12:42:43.387Z,11.99
2022-12-25T12:43:42.310Z,12.00
2022-12-25T12:44:43.551Z,12.02
2022-12-25T12:45:42.507Z,12.00
2022-12-25T12:46:42.306Z,12.05
2022-12-25T12:47:44.074Z,12.09
2022-12-25T12:48:43.139Z,11.99
2022-12-25T12:49:42.247Z,11.91
2022-12-25T12:50:42.944Z,11.95
2022-12-25T12:51:43.963Z,11.91
2022-12-25T12:52:43.219Z,11.96
2022-12-25T12:53:42.260Z,11.91
2022-12-25T12:54:42.861Z,11.90
2022-12-25T12:55:42.210Z,11.91
2022-12-25T12:56:43.691Z,11.91
2022-12-25T12:57:43.028Z,11.96
2022-12-25T12:58:42.790Z,11.95
2022-12-25T12:59:42.981Z,11.91
2022-12-25T13:00:43.702Z,11.88
2022-12-25T13:01:43.521Z,11.84
2022-12-25T13:02:43.237Z,11.86
2022-12-25T13:03:44.291Z,11.86
2022-12-25T13:04:43.370Z,11.79
2022-12-25T13:05:42.779Z,11.84
2022-12-25T13:06:42.867Z,11.84
2022-12-25T13:07:42.340Z,11.88
2022-12-25T13:08:42.020Z,11.88
2022-12-25T13:09:42.036Z,11.90
2022-12-25T13:10:43.988Z,11.87